sensor_id;sensor_type;location;lat;lon;timestamp;P1;durP1;ratioP1;P2;durP2;ratioP2
19619;SDS011;9957;52.282;21.110;2024-03-22T00:02:21;61.60;;;25.45;;
19619;SDS011;9957;52.282;21.110;2024-03-22T00:04:48;57.88;;;25.08;;
19619;SDS011;9957;52.282;21.110;2024-03-22T00:07:14;59.15;;;24.85;;
19619;SDS011;9957;52.282;21.110;2024-03-22T00:09:40;65.28;;;25.55;;
19619;SDS011;9957;52.282;21.110;2024-03-22T00:12:06;59.25;;;25.98;;
19619;SDS011;9957;52.282;21.110;2024-03-22T00:14:32;74.63;;;32.83;;
19619;SDS011;9957;52.282;21.110;2024-03-22T00:16:58;66.47;;;27.08;;
19619;SDS011;9957;52.282;21.110;2024-03-22T00:19:24;68.28;;;27.48;;
19619;SDS011;9957;52.282;21.110;2024-03-22T00:21:50;70.40;;;27.97;;
19619;SDS011;9957;52.282;21.110;2024-03-22T00:24:16;73.78;;;31.35;;
19619;SDS011;9957;52.282;21.110;2024-03-22T00:26:42;91.68;;;39.45;;
19619;SDS011;9957;52.282;21.110;2024-03-22T00:29:08;81.20;;;35.47;;
19619;SDS011;9957;52.282;21.110;2024-03-22T00:31:34;67.20;;;30.60;;
19619;SDS011;9957;52.282;21.110;2024-03-22T00:34:00;64.45;;;28.52;;
19619;SDS011;9957;52.282;21.110;2024-03-22T00:36:26;63.80;;;27.67;;
19619;SDS011;9957;52.282;21.110;2024-03-22T00:38:53;66.40;;;27.02;;
19619;SDS011;9957;52.282;21.110;2024-03-22T00:41:19;68.55;;;27.58;;
19619;SDS011;9957;52.282;21.110;2024-03-22T00:43:45;74.20;;;28.75;;
19619;SDS011;9957;52.282;21.110;2024-03-22T00:46:11;70.53;;;28.77;;
19619;SDS011;9957;52.282;21.110;2024-03-22T00:48:37;70.15;;;29.23;;
19619;SDS011;9957;52.282;21.110;2024-03-22T00:51:03;74.13;;;30.98;;
19619;SDS011;9957;52.282;21.110;2024-03-22T00:53:29;73.72;;;30.15;;
19619;SDS011;9957;52.282;21.110;2024-03-22T00:55:56;74.93;;;30.25;;
19619;SDS011;9957;52.282;21.110;2024-03-22T00:58:24;77.55;;;30.90;;
19619;SDS011;9957;52.282;21.110;2024-03-22T01:00:50;76.07;;;31.50;;
19619;SDS011;9957;52.282;21.110;2024-03-22T01:03:16;75.10;;;30.70;;
19619;SDS011;9957;52.282;21.110;2024-03-22T01:05:42;76.60;;;30.30;;
19619;SDS011;9957;52.282;21.110;2024-03-22T01:08:09;74.40;;;30.83;;
19619;SDS011;9957;52.282;21.110;2024-03-22T01:10:35;73.43;;;30.15;;
19619;SDS011;9957;52.282;21.110;2024-03-22T01:13:01;73.00;;;31.20;;
19619;SDS011;9957;52.282;21.110;2024-03-22T01:15:27;81.35;;;32.13;;
19619;SDS011;9957;52.282;21.110;2024-03-22T01:22:20;83.60;;;34.83;;
19619;SDS011;9957;52.282;21.110;2024-03-22T01:24:46;85.38;;;35.33;;
19619;SDS011;9957;52.282;21.110;2024-03-22T01:27:12;85.05;;;34.72;;
19619;SDS011;9957;52.282;21.110;2024-03-22T01:29:38;77.43;;;34.13;;
19619;SDS011;9957;52.282;21.110;2024-03-22T01:32:05;83.85;;;33.78;;
19619;SDS011;9957;52.282;21.110;2024-03-22T01:34:31;81.80;;;34.55;;
19619;SDS011;9957;52.282;21.110;2024-03-22T01:36:57;79.18;;;33.75;;
19619;SDS011;9957;52.282;21.110;2024-03-22T01:39:24;76.03;;;33.03;;
19619;SDS011;9957;52.282;21.110;2024-03-22T01:41:50;81.85;;;33.80;;
19619;SDS011;9957;52.282;21.110;2024-03-22T01:44:17;81.60;;;34.00;;
19619;SDS011;9957;52.282;21.110;2024-03-22T01:46:44;79.97;;;32.90;;
19619;SDS011;9957;52.282;21.110;2024-03-22T01:49:11;74.72;;;32.60;;
19619;SDS011;9957;52.282;21.110;2024-03-22T01:51:40;76.13;;;32.65;;
19619;SDS011;9957;52.282;21.110;2024-03-22T01:54:10;75.93;;;32.75;;
19619;SDS011;9957;52.282;21.110;2024-03-22T01:56:36;79.18;;;32.78;;
19619;SDS011;9957;52.282;21.110;2024-03-22T01:59:04;80.30;;;33.17;;
19619;SDS011;9957;52.282;21.110;2024-03-22T02:01:30;77.50;;;32.10;;
19619;SDS011;9957;52.282;21.110;2024-03-22T02:03:56;78.97;;;32.78;;
19619;SDS011;9957;52.282;21.110;2024-03-22T02:06:22;81.83;;;33.93;;
19619;SDS011;9957;52.282;21.110;2024-03-22T02:08:48;82.30;;;34.28;;
19619;SDS011;9957;52.282;21.110;2024-03-22T02:11:14;89.22;;;34.60;;
19619;SDS011;9957;52.282;21.110;2024-03-22T02:13:40;92.07;;;34.38;;
19619;SDS011;9957;52.282;21.110;2024-03-22T02:16:08;90.73;;;35.20;;
19619;SDS011;9957;52.282;21.110;2024-03-22T02:18:34;86.47;;;34.22;;
19619;SDS011;9957;52.282;21.110;2024-03-22T02:21:00;92.30;;;33.92;;
19619;SDS011;9957;52.282;21.110;2024-03-22T02:23:33;91.18;;;33.97;;
19619;SDS011;9957;52.282;21.110;2024-03-22T02:25:59;87.72;;;34.25;;
19619;SDS011;9957;52.282;21.110;2024-03-22T02:28:26;88.05;;;33.35;;
19619;SDS011;9957;52.282;21.110;2024-03-22T02:30:52;88.93;;;34.07;;
19619;SDS011;9957;52.282;21.110;2024-03-22T02:33:18;87.47;;;34.40;;
19619;SDS011;9957;52.282;21.110;2024-03-22T02:35:47;97.50;;;35.33;;
19619;SDS011;9957;52.282;21.110;2024-03-22T02:38:14;86.10;;;33.57;;
19619;SDS011;9957;52.282;21.110;2024-03-22T02:40:40;99.55;;;34.97;;
19619;SDS011;9957;52.282;21.110;2024-03-22T02:43:06;90.18;;;34.65;;
19619;SDS011;9957;52.282;21.110;2024-03-22T02:45:32;95.72;;;34.30;;
19619;SDS011;9957;52.282;21.110;2024-03-22T02:47:58;94.10;;;34.60;;
19619;SDS011;9957;52.282;21.110;2024-03-22T02:50:24;90.72;;;33.97;;
19619;SDS011;9957;52.282;21.110;2024-03-22T02:52:50;94.43;;;34.58;;
19619;SDS011;9957;52.282;21.110;2024-03-22T02:55:16;92.25;;;34.78;;
19619;SDS011;9957;52.282;21.110;2024-03-22T02:57:42;93.97;;;34.90;;
19619;SDS011;9957;52.282;21.110;2024-03-22T03:00:09;95.53;;;34.50;;
19619;SDS011;9957;52.282;21.110;2024-03-22T03:02:35;93.38;;;35.42;;
19619;SDS011;9957;52.282;21.110;2024-03-22T03:05:01;92.65;;;35.47;;
19619;SDS011;9957;52.282;21.110;2024-03-22T03:07:28;101.60;;;35.50;;
19619;SDS011;9957;52.282;21.110;2024-03-22T03:09:54;94.75;;;34.67;;
19619;SDS011;9957;52.282;21.110;2024-03-22T03:12:20;95.43;;;34.50;;
19619;SDS011;9957;52.282;21.110;2024-03-22T03:14:46;102.03;;;35.90;;
19619;SDS011;9957;52.282;21.110;2024-03-22T03:17:12;101.45;;;34.88;;
19619;SDS011;9957;52.282;21.110;2024-03-22T03:19:38;99.25;;;33.58;;
19619;SDS011;9957;52.282;21.110;2024-03-22T03:22:05;94.90;;;33.38;;
19619;SDS011;9957;52.282;21.110;2024-03-22T03:24:31;91.43;;;33.03;;
19619;SDS011;9957;52.282;21.110;2024-03-22T03:26:57;88.13;;;32.77;;
19619;SDS011;9957;52.282;21.110;2024-03-22T03:29:23;98.25;;;33.03;;
19619;SDS011;9957;52.282;21.110;2024-03-22T03:31:49;92.30;;;32.22;;
19619;SDS011;9957;52.282;21.110;2024-03-22T03:34:15;89.40;;;31.70;;
19619;SDS011;9957;52.282;21.110;2024-03-22T03:36:41;89.50;;;30.92;;
19619;SDS011;9957;52.282;21.110;2024-03-22T03:39:07;89.00;;;30.30;;
19619;SDS011;9957;52.282;21.110;2024-03-22T03:41:33;91.80;;;31.17;;
19619;SDS011;9957;52.282;21.110;2024-03-22T03:43:59;93.03;;;30.95;;
19619;SDS011;9957;52.282;21.110;2024-03-22T03:46:25;95.00;;;31.00;;
19619;SDS011;9957;52.282;21.110;2024-03-22T03:48:51;90.32;;;30.95;;
19619;SDS011;9957;52.282;21.110;2024-03-22T03:51:17;88.95;;;29.85;;
19619;SDS011;9957;52.282;21.110;2024-03-22T03:53:43;89.70;;;30.10;;
19619;SDS011;9957;52.282;21.110;2024-03-22T03:56:09;88.25;;;29.55;;
19619;SDS011;9957;52.282;21.110;2024-03-22T03:58:36;89.63;;;30.08;;
19619;SDS011;9957;52.282;21.110;2024-03-22T04:01:08;95.45;;;30.00;;
19619;SDS011;9957;52.282;21.110;2024-03-22T04:03:35;85.93;;;29.25;;
19619;SDS011;9957;52.282;21.110;2024-03-22T04:06:01;89.05;;;29.42;;
19619;SDS011;9957;52.282;21.110;2024-03-22T04:08:27;87.65;;;28.58;;
19619;SDS011;9957;52.282;21.110;2024-03-22T04:10:56;85.63;;;28.70;;
19619;SDS011;9957;52.282;21.110;2024-03-22T04:13:23;92.53;;;30.77;;
19619;SDS011;9957;52.282;21.110;2024-03-22T04:15:49;89.20;;;29.27;;
19619;SDS011;9957;52.282;21.110;2024-03-22T04:18:15;89.15;;;29.50;;
19619;SDS011;9957;52.282;21.110;2024-03-22T04:20:41;82.85;;;29.30;;
19619;SDS011;9957;52.282;21.110;2024-03-22T04:23:09;90.07;;;29.85;;
19619;SDS011;9957;52.282;21.110;2024-03-22T04:25:35;80.82;;;28.70;;
19619;SDS011;9957;52.282;21.110;2024-03-22T04:28:01;80.65;;;27.60;;
19619;SDS011;9957;52.282;21.110;2024-03-22T04:30:27;80.10;;;28.33;;
19619;SDS011;9957;52.282;21.110;2024-03-22T04:32:53;79.80;;;28.13;;
19619;SDS011;9957;52.282;21.110;2024-03-22T04:35:19;75.78;;;27.63;;
19619;SDS011;9957;52.282;21.110;2024-03-22T04:37:45;80.72;;;29.17;;
19619;SDS011;9957;52.282;21.110;2024-03-22T04:40:11;76.40;;;27.50;;
19619;SDS011;9957;52.282;21.110;2024-03-22T04:42:38;75.30;;;27.42;;
19619;SDS011;9957;52.282;21.110;2024-03-22T04:45:04;82.07;;;28.17;;
19619;SDS011;9957;52.282;21.110;2024-03-22T04:47:30;76.57;;;27.63;;
19619;SDS011;9957;52.282;21.110;2024-03-22T04:49:56;87.22;;;29.40;;
19619;SDS011;9957;52.282;21.110;2024-03-22T04:52:22;89.45;;;28.73;;
19619;SDS011;9957;52.282;21.110;2024-03-22T04:54:48;77.13;;;27.65;;
19619;SDS011;9957;52.282;21.110;2024-03-22T04:57:14;85.55;;;28.25;;
19619;SDS011;9957;52.282;21.110;2024-03-22T04:59:40;78.75;;;28.40;;
19619;SDS011;9957;52.282;21.110;2024-03-22T05:02:07;82.05;;;27.88;;
19619;SDS011;9957;52.282;21.110;2024-03-22T05:04:33;77.47;;;28.05;;
19619;SDS011;9957;52.282;21.110;2024-03-22T05:06:59;81.45;;;28.52;;
19619;SDS011;9957;52.282;21.110;2024-03-22T05:09:25;84.47;;;28.90;;
19619;SDS011;9957;52.282;21.110;2024-03-22T05:11:51;79.30;;;29.40;;
19619;SDS011;9957;52.282;21.110;2024-03-22T05:14:18;76.60;;;27.63;;
19619;SDS011;9957;52.282;21.110;2024-03-22T05:16:44;87.63;;;29.38;;
19619;SDS011;9957;52.282;21.110;2024-03-22T05:19:10;81.57;;;28.60;;
19619;SDS011;9957;52.282;21.110;2024-03-22T05:21:37;76.57;;;28.35;;
19619;SDS011;9957;52.282;21.110;2024-03-22T05:24:03;74.25;;;27.08;;
19619;SDS011;9957;52.282;21.110;2024-03-22T05:26:29;71.90;;;26.95;;
19619;SDS011;9957;52.282;21.110;2024-03-22T05:29:00;66.53;;;26.10;;
19619;SDS011;9957;52.282;21.110;2024-03-22T05:31:27;69.40;;;26.25;;
19619;SDS011;9957;52.282;21.110;2024-03-22T05:33:53;75.95;;;27.05;;
19619;SDS011;9957;52.282;21.110;2024-03-22T05:36:19;70.63;;;26.02;;
19619;SDS011;9957;52.282;21.110;2024-03-22T05:38:45;70.67;;;26.60;;
19619;SDS011;9957;52.282;21.110;2024-03-22T05:41:11;74.50;;;27.15;;
19619;SDS011;9957;52.282;21.110;2024-03-22T05:43:38;68.97;;;25.73;;
19619;SDS011;9957;52.282;21.110;2024-03-22T05:46:04;66.15;;;25.00;;
19619;SDS011;9957;52.282;21.110;2024-03-22T05:48:30;67.40;;;25.53;;
19619;SDS011;9957;52.282;21.110;2024-03-22T05:50:56;71.45;;;26.33;;
19619;SDS011;9957;52.282;21.110;2024-03-22T05:53:22;68.00;;;25.25;;
19619;SDS011;9957;52.282;21.110;2024-03-22T05:55:48;68.23;;;26.00;;
19619;SDS011;9957;52.282;21.110;2024-03-22T05:58:14;71.00;;;25.75;;
19619;SDS011;9957;52.282;21.110;2024-03-22T06:00:40;67.75;;;26.23;;
19619;SDS011;9957;52.282;21.110;2024-03-22T06:03:07;68.72;;;25.58;;
19619;SDS011;9957;52.282;21.110;2024-03-22T06:05:33;68.47;;;26.17;;
19619;SDS011;9957;52.282;21.110;2024-03-22T06:07:59;68.75;;;26.30;;
19619;SDS011;9957;52.282;21.110;2024-03-22T06:10:25;70.90;;;26.20;;
19619;SDS011;9957;52.282;21.110;2024-03-22T06:12:51;67.80;;;26.27;;
19619;SDS011;9957;52.282;21.110;2024-03-22T06:15:17;67.45;;;26.13;;
19619;SDS011;9957;52.282;21.110;2024-03-22T06:17:44;64.05;;;25.83;;
19619;SDS011;9957;52.282;21.110;2024-03-22T06:20:11;67.97;;;26.10;;
19619;SDS011;9957;52.282;21.110;2024-03-22T06:22:38;64.78;;;25.80;;
19619;SDS011;9957;52.282;21.110;2024-03-22T06:25:04;62.13;;;25.25;;
19619;SDS011;9957;52.282;21.110;2024-03-22T06:27:30;64.00;;;24.90;;
19619;SDS011;9957;52.282;21.110;2024-03-22T06:29:56;63.35;;;24.40;;
19619;SDS011;9957;52.282;21.110;2024-03-22T06:32:28;62.85;;;24.25;;
19619;SDS011;9957;52.282;21.110;2024-03-22T06:34:54;60.38;;;23.02;;
19619;SDS011;9957;52.282;21.110;2024-03-22T06:37:20;55.92;;;22.77;;
19619;SDS011;9957;52.282;21.110;2024-03-22T06:39:47;57.38;;;22.10;;
19619;SDS011;9957;52.282;21.110;2024-03-22T06:42:13;59.42;;;22.75;;
19619;SDS011;9957;52.282;21.110;2024-03-22T06:44:39;61.75;;;23.77;;
19619;SDS011;9957;52.282;21.110;2024-03-22T06:47:05;59.92;;;24.15;;
19619;SDS011;9957;52.282;21.110;2024-03-22T06:49:31;61.65;;;23.70;;
19619;SDS011;9957;52.282;21.110;2024-03-22T06:51:57;72.43;;;29.95;;
19619;SDS011;9957;52.282;21.110;2024-03-22T06:54:24;70.10;;;28.00;;
19619;SDS011;9957;52.282;21.110;2024-03-22T06:56:51;62.58;;;24.40;;
19619;SDS011;9957;52.282;21.110;2024-03-22T06:59:17;73.97;;;29.53;;
19619;SDS011;9957;52.282;21.110;2024-03-22T07:01:43;63.15;;;23.83;;
19619;SDS011;9957;52.282;21.110;2024-03-22T07:04:09;60.58;;;23.13;;
19619;SDS011;9957;52.282;21.110;2024-03-22T07:06:35;57.83;;;23.10;;
19619;SDS011;9957;52.282;21.110;2024-03-22T07:09:01;62.72;;;24.88;;
19619;SDS011;9957;52.282;21.110;2024-03-22T07:11:27;58.17;;;23.20;;
19619;SDS011;9957;52.282;21.110;2024-03-22T07:13:53;54.40;;;21.90;;
19619;SDS011;9957;52.282;21.110;2024-03-22T07:16:19;50.65;;;20.52;;
19619;SDS011;9957;52.282;21.110;2024-03-22T07:18:45;51.95;;;20.85;;
19619;SDS011;9957;52.282;21.110;2024-03-22T07:21:13;63.58;;;24.25;;
19619;SDS011;9957;52.282;21.110;2024-03-22T07:23:39;55.93;;;21.77;;
19619;SDS011;9957;52.282;21.110;2024-03-22T07:26:05;51.00;;;20.05;;
19619;SDS011;9957;52.282;21.110;2024-03-22T07:28:33;51.58;;;21.30;;
19619;SDS011;9957;52.282;21.110;2024-03-22T07:30:59;61.55;;;23.65;;
19619;SDS011;9957;52.282;21.110;2024-03-22T07:33:25;45.73;;;19.57;;
19619;SDS011;9957;52.282;21.110;2024-03-22T07:35:51;54.75;;;19.67;;
19619;SDS011;9957;52.282;21.110;2024-03-22T07:38:19;46.28;;;19.83;;
19619;SDS011;9957;52.282;21.110;2024-03-22T07:40:45;77.78;;;29.65;;
19619;SDS011;9957;52.282;21.110;2024-03-22T07:43:11;123.53;;;47.53;;
19619;SDS011;9957;52.282;21.110;2024-03-22T07:45:39;49.78;;;20.77;;
19619;SDS011;9957;52.282;21.110;2024-03-22T07:48:05;52.80;;;21.13;;
19619;SDS011;9957;52.282;21.110;2024-03-22T07:50:32;81.03;;;33.97;;
19619;SDS011;9957;52.282;21.110;2024-03-22T07:52:58;56.17;;;23.40;;
19619;SDS011;9957;52.282;21.110;2024-03-22T07:55:25;47.67;;;20.17;;
19619;SDS011;9957;52.282;21.110;2024-03-22T07:57:51;53.55;;;23.30;;
19619;SDS011;9957;52.282;21.110;2024-03-22T08:00:17;42.72;;;18.23;;
19619;SDS011;9957;52.282;21.110;2024-03-22T08:02:43;46.00;;;20.33;;
19619;SDS011;9957;52.282;21.110;2024-03-22T08:05:09;49.73;;;19.93;;
19619;SDS011;9957;52.282;21.110;2024-03-22T08:07:35;54.05;;;23.52;;
19619;SDS011;9957;52.282;21.110;2024-03-22T08:10:01;44.47;;;18.45;;
19619;SDS011;9957;52.282;21.110;2024-03-22T08:12:29;45.78;;;18.42;;
19619;SDS011;9957;52.282;21.110;2024-03-22T08:14:55;52.30;;;23.25;;
19619;SDS011;9957;52.282;21.110;2024-03-22T08:17:21;52.13;;;21.45;;
19619;SDS011;9957;52.282;21.110;2024-03-22T08:19:47;54.73;;;21.67;;
19619;SDS011;9957;52.282;21.110;2024-03-22T08:22:13;49.22;;;20.05;;
19619;SDS011;9957;52.282;21.110;2024-03-22T08:24:39;51.92;;;20.40;;
19619;SDS011;9957;52.282;21.110;2024-03-22T08:27:05;52.58;;;20.38;;
19619;SDS011;9957;52.282;21.110;2024-03-22T08:29:31;51.88;;;20.20;;
19619;SDS011;9957;52.282;21.110;2024-03-22T08:31:58;46.45;;;18.60;;
19619;SDS011;9957;52.282;21.110;2024-03-22T08:34:24;45.67;;;19.25;;
19619;SDS011;9957;52.282;21.110;2024-03-22T08:36:50;44.92;;;18.88;;
19619;SDS011;9957;52.282;21.110;2024-03-22T08:39:16;45.63;;;18.98;;
19619;SDS011;9957;52.282;21.110;2024-03-22T08:41:42;49.70;;;19.33;;
19619;SDS011;9957;52.282;21.110;2024-03-22T08:44:09;45.45;;;18.90;;
19619;SDS011;9957;52.282;21.110;2024-03-22T08:46:35;46.00;;;19.00;;
19619;SDS011;9957;52.282;21.110;2024-03-22T08:49:02;51.20;;;22.60;;
19619;SDS011;9957;52.282;21.110;2024-03-22T08:51:28;48.55;;;19.65;;
19619;SDS011;9957;52.282;21.110;2024-03-22T08:53:55;49.08;;;20.45;;
19619;SDS011;9957;52.282;21.110;2024-03-22T08:56:21;55.60;;;23.92;;
19619;SDS011;9957;52.282;21.110;2024-03-22T08:58:47;59.03;;;24.98;;
19619;SDS011;9957;52.282;21.110;2024-03-22T09:01:13;65.70;;;27.70;;
19619;SDS011;9957;52.282;21.110;2024-03-22T09:03:39;82.85;;;35.63;;
19619;SDS011;9957;52.282;21.110;2024-03-22T09:06:05;63.88;;;27.45;;
19619;SDS011;9957;52.282;21.110;2024-03-22T09:08:31;45.28;;;19.58;;
19619;SDS011;9957;52.282;21.110;2024-03-22T09:10:59;45.75;;;21.25;;
19619;SDS011;9957;52.282;21.110;2024-03-22T09:13:25;42.88;;;19.00;;
19619;SDS011;9957;52.282;21.110;2024-03-22T09:16:00;39.85;;;16.48;;
19619;SDS011;9957;52.282;21.110;2024-03-22T09:18:26;41.25;;;16.67;;
19619;SDS011;9957;52.282;21.110;2024-03-22T09:20:52;39.72;;;16.80;;
19619;SDS011;9957;52.282;21.110;2024-03-22T09:23:19;39.90;;;16.77;;
19619;SDS011;9957;52.282;21.110;2024-03-22T09:25:45;40.13;;;17.37;;
19619;SDS011;9957;52.282;21.110;2024-03-22T09:28:12;42.22;;;18.30;;
19619;SDS011;9957;52.282;21.110;2024-03-22T09:30:41;39.55;;;16.90;;
19619;SDS011;9957;52.282;21.110;2024-03-22T09:33:08;39.50;;;17.45;;
19619;SDS011;9957;52.282;21.110;2024-03-22T09:35:34;41.00;;;18.23;;
19619;SDS011;9957;52.282;21.110;2024-03-22T09:38:00;39.13;;;17.87;;
19619;SDS011;9957;52.282;21.110;2024-03-22T09:40:27;41.92;;;18.05;;
19619;SDS011;9957;52.282;21.110;2024-03-22T09:42:53;40.93;;;17.30;;
19619;SDS011;9957;52.282;21.110;2024-03-22T09:45:19;38.63;;;18.17;;
19619;SDS011;9957;52.282;21.110;2024-03-22T09:47:46;37.35;;;16.70;;
19619;SDS011;9957;52.282;21.110;2024-03-22T09:50:14;38.83;;;16.10;;
19619;SDS011;9957;52.282;21.110;2024-03-22T09:52:41;37.42;;;15.98;;
19619;SDS011;9957;52.282;21.110;2024-03-22T09:55:07;34.85;;;15.73;;
19619;SDS011;9957;52.282;21.110;2024-03-22T09:57:35;34.78;;;15.10;;
19619;SDS011;9957;52.282;21.110;2024-03-22T10:00:05;33.65;;;14.40;;
19619;SDS011;9957;52.282;21.110;2024-03-22T10:02:32;35.80;;;14.82;;
19619;SDS011;9957;52.282;21.110;2024-03-22T10:04:59;33.70;;;13.82;;
19619;SDS011;9957;52.282;21.110;2024-03-22T10:07:27;31.83;;;14.20;;
19619;SDS011;9957;52.282;21.110;2024-03-22T10:09:53;39.23;;;18.10;;
19619;SDS011;9957;52.282;21.110;2024-03-22T10:12:19;38.63;;;17.92;;
19619;SDS011;9957;52.282;21.110;2024-03-22T10:14:45;31.27;;;14.27;;
19619;SDS011;9957;52.282;21.110;2024-03-22T10:17:11;34.80;;;14.80;;
19619;SDS011;9957;52.282;21.110;2024-03-22T10:19:37;36.43;;;15.30;;
19619;SDS011;9957;52.282;21.110;2024-03-22T10:22:05;33.25;;;14.82;;
19619;SDS011;9957;52.282;21.110;2024-03-22T10:24:32;34.22;;;15.07;;
19619;SDS011;9957;52.282;21.110;2024-03-22T10:26:58;37.85;;;17.45;;
19619;SDS011;9957;52.282;21.110;2024-03-22T10:29:24;37.70;;;15.85;;
19619;SDS011;9957;52.282;21.110;2024-03-22T10:31:54;35.85;;;15.60;;
19619;SDS011;9957;52.282;21.110;2024-03-22T10:34:20;48.30;;;20.70;;
19619;SDS011;9957;52.282;21.110;2024-03-22T10:36:47;48.45;;;21.67;;
19619;SDS011;9957;52.282;21.110;2024-03-22T10:39:13;57.17;;;26.75;;
19619;SDS011;9957;52.282;21.110;2024-03-22T10:41:41;40.73;;;17.27;;
19619;SDS011;9957;52.282;21.110;2024-03-22T10:44:07;36.38;;;16.98;;
19619;SDS011;9957;52.282;21.110;2024-03-22T10:46:34;36.47;;;16.67;;
19619;SDS011;9957;52.282;21.110;2024-03-22T10:49:00;50.45;;;22.58;;
19619;SDS011;9957;52.282;21.110;2024-03-22T10:51:30;42.72;;;19.25;;
19619;SDS011;9957;52.282;21.110;2024-03-22T10:53:57;38.75;;;17.38;;
19619;SDS011;9957;52.282;21.110;2024-03-22T10:56:24;36.17;;;16.58;;
19619;SDS011;9957;52.282;21.110;2024-03-22T10:58:50;39.60;;;16.45;;
19619;SDS011;9957;52.282;21.110;2024-03-22T11:01:24;35.58;;;15.57;;
19619;SDS011;9957;52.282;21.110;2024-03-22T11:03:51;35.25;;;15.18;;
19619;SDS011;9957;52.282;21.110;2024-03-22T11:06:20;33.08;;;14.23;;
19619;SDS011;9957;52.282;21.110;2024-03-22T11:08:50;36.95;;;15.45;;
19619;SDS011;9957;52.282;21.110;2024-03-22T11:11:17;35.13;;;15.93;;
19619;SDS011;9957;52.282;21.110;2024-03-22T11:13:46;29.95;;;13.55;;
19619;SDS011;9957;52.282;21.110;2024-03-22T11:16:14;30.23;;;14.20;;
19619;SDS011;9957;52.282;21.110;2024-03-22T11:18:40;31.92;;;14.25;;
19619;SDS011;9957;52.282;21.110;2024-03-22T11:21:06;30.00;;;14.38;;
19619;SDS011;9957;52.282;21.110;2024-03-22T11:23:34;31.98;;;13.85;;
19619;SDS011;9957;52.282;21.110;2024-03-22T11:26:01;30.10;;;14.20;;
19619;SDS011;9957;52.282;21.110;2024-03-22T11:28:27;33.00;;;14.57;;
19619;SDS011;9957;52.282;21.110;2024-03-22T11:30:53;31.70;;;14.90;;
19619;SDS011;9957;52.282;21.110;2024-03-22T11:33:19;34.22;;;15.90;;
19619;SDS011;9957;52.282;21.110;2024-03-22T11:35:46;35.70;;;16.17;;
19619;SDS011;9957;52.282;21.110;2024-03-22T11:38:13;31.92;;;15.05;;
19619;SDS011;9957;52.282;21.110;2024-03-22T11:40:39;31.92;;;14.70;;
19619;SDS011;9957;52.282;21.110;2024-03-22T11:43:05;31.98;;;14.65;;
19619;SDS011;9957;52.282;21.110;2024-03-22T11:45:31;32.63;;;15.00;;
19619;SDS011;9957;52.282;21.110;2024-03-22T11:48:02;40.05;;;17.38;;
19619;SDS011;9957;52.282;21.110;2024-03-22T11:50:28;48.83;;;21.20;;
19619;SDS011;9957;52.282;21.110;2024-03-22T11:52:54;49.25;;;21.17;;
19619;SDS011;9957;52.282;21.110;2024-03-22T11:55:22;44.75;;;18.95;;
19619;SDS011;9957;52.282;21.110;2024-03-22T11:57:48;33.83;;;15.73;;
19619;SDS011;9957;52.282;21.110;2024-03-22T12:00:14;33.35;;;15.15;;
19619;SDS011;9957;52.282;21.110;2024-03-22T12:02:41;43.13;;;18.80;;
19619;SDS011;9957;52.282;21.110;2024-03-22T12:05:07;31.33;;;13.77;;
19619;SDS011;9957;52.282;21.110;2024-03-22T12:07:33;31.05;;;13.20;;
19619;SDS011;9957;52.282;21.110;2024-03-22T12:10:00;37.65;;;16.65;;
19619;SDS011;9957;52.282;21.110;2024-03-22T12:12:26;26.90;;;12.80;;
19619;SDS011;9957;52.282;21.110;2024-03-22T12:14:52;32.03;;;13.93;;
19619;SDS011;9957;52.282;21.110;2024-03-22T12:17:18;30.55;;;13.50;;
19619;SDS011;9957;52.282;21.110;2024-03-22T12:19:44;29.48;;;13.63;;
19619;SDS011;9957;52.282;21.110;2024-03-22T12:22:10;31.52;;;15.10;;
19619;SDS011;9957;52.282;21.110;2024-03-22T12:24:36;24.30;;;11.43;;
19619;SDS011;9957;52.282;21.110;2024-03-22T12:27:03;25.45;;;10.93;;
19619;SDS011;9957;52.282;21.110;2024-03-22T12:29:29;27.65;;;12.60;;
19619;SDS011;9957;52.282;21.110;2024-03-22T12:31:55;27.60;;;12.90;;
19619;SDS011;9957;52.282;21.110;2024-03-22T12:34:21;29.13;;;12.20;;
19619;SDS011;9957;52.282;21.110;2024-03-22T12:36:47;23.00;;;10.57;;
19619;SDS011;9957;52.282;21.110;2024-03-22T12:39:14;29.02;;;12.07;;
19619;SDS011;9957;52.282;21.110;2024-03-22T12:41:40;26.83;;;11.87;;
19619;SDS011;9957;52.282;21.110;2024-03-22T12:44:06;23.77;;;10.80;;
19619;SDS011;9957;52.282;21.110;2024-03-22T12:46:32;21.70;;;10.82;;
19619;SDS011;9957;52.282;21.110;2024-03-22T12:48:58;24.37;;;10.13;;
19619;SDS011;9957;52.282;21.110;2024-03-22T12:51:24;27.60;;;10.60;;
19619;SDS011;9957;52.282;21.110;2024-03-22T12:53:50;26.48;;;11.48;;
19619;SDS011;9957;52.282;21.110;2024-03-22T12:56:17;21.98;;;10.35;;
19619;SDS011;9957;52.282;21.110;2024-03-22T12:58:43;23.90;;;11.00;;
19619;SDS011;9957;52.282;21.110;2024-03-22T13:01:09;25.83;;;11.35;;
19619;SDS011;9957;52.282;21.110;2024-03-22T13:03:39;23.70;;;11.43;;
19619;SDS011;9957;52.282;21.110;2024-03-22T13:06:05;22.52;;;10.63;;
19619;SDS011;9957;52.282;21.110;2024-03-22T13:08:32;25.95;;;11.25;;
19619;SDS011;9957;52.282;21.110;2024-03-22T13:10:58;25.38;;;11.07;;
19619;SDS011;9957;52.282;21.110;2024-03-22T13:13:24;25.15;;;11.43;;
19619;SDS011;9957;52.282;21.110;2024-03-22T13:15:50;33.38;;;15.90;;
19619;SDS011;9957;52.282;21.110;2024-03-22T13:18:16;35.08;;;16.55;;
19619;SDS011;9957;52.282;21.110;2024-03-22T13:20:42;25.40;;;11.38;;
19619;SDS011;9957;52.282;21.110;2024-03-22T13:23:09;28.33;;;11.00;;
19619;SDS011;9957;52.282;21.110;2024-03-22T13:25:36;21.90;;;11.07;;
19619;SDS011;9957;52.282;21.110;2024-03-22T13:28:03;21.80;;;10.93;;
19619;SDS011;9957;52.282;21.110;2024-03-22T13:30:30;29.58;;;10.50;;
19619;SDS011;9957;52.282;21.110;2024-03-22T13:32:56;23.88;;;10.55;;
19619;SDS011;9957;52.282;21.110;2024-03-22T13:35:24;25.60;;;11.15;;
19619;SDS011;9957;52.282;21.110;2024-03-22T13:37:50;27.50;;;11.02;;
19619;SDS011;9957;52.282;21.110;2024-03-22T13:40:16;22.00;;;11.23;;
19619;SDS011;9957;52.282;21.110;2024-03-22T13:42:43;26.33;;;10.88;;
19619;SDS011;9957;52.282;21.110;2024-03-22T13:45:09;30.10;;;11.70;;
19619;SDS011;9957;52.282;21.110;2024-03-22T13:47:35;24.88;;;11.40;;
19619;SDS011;9957;52.282;21.110;2024-03-22T13:50:06;24.92;;;10.88;;
19619;SDS011;9957;52.282;21.110;2024-03-22T13:52:34;33.45;;;10.90;;
19619;SDS011;9957;52.282;21.110;2024-03-22T13:55:00;23.75;;;10.80;;
19619;SDS011;9957;52.282;21.110;2024-03-22T13:57:27;25.25;;;10.88;;
19619;SDS011;9957;52.282;21.110;2024-03-22T13:59:53;34.50;;;12.65;;
19619;SDS011;9957;52.282;21.110;2024-03-22T14:02:19;28.13;;;13.07;;
19619;SDS011;9957;52.282;21.110;2024-03-22T14:04:45;41.50;;;15.90;;
19619;SDS011;9957;52.282;21.110;2024-03-22T14:07:11;28.65;;;12.85;;
19619;SDS011;9957;52.282;21.110;2024-03-22T14:09:37;23.27;;;11.55;;
19619;SDS011;9957;52.282;21.110;2024-03-22T14:12:05;24.98;;;11.80;;
19619;SDS011;9957;52.282;21.110;2024-03-22T14:14:31;26.08;;;11.93;;
19619;SDS011;9957;52.282;21.110;2024-03-22T14:16:57;24.40;;;11.30;;
19619;SDS011;9957;52.282;21.110;2024-03-22T14:19:24;23.40;;;11.63;;
19619;SDS011;9957;52.282;21.110;2024-03-22T14:21:50;22.20;;;11.35;;